Time;durP1;ratioP1;P1;durP2;ratioP2;P2;SDS_P1;SDS_P2;PMS_P1;PMS_P2;Temp;Humidity;BMP_temperature;BMP_pressure;BME280_temperature;BME280_humidity;BME280_pressure;Samples;Min_cycle;Max_cycle;Signal;HPM_P1;HPM_P2
2023/06/15 00:01:51;;;;;;;13.95;8.43;;;;;;;14.94;70.96;101660.53;5052531;28;20035;-45
2023/06/15 00:04:17;;;;;;;9.93;8.00;;;;;;;14.82;72.37;101667.16;5053137;28;20029;-46
2023/06/15 00:06:43;;;;;;;10.63;8.30;;;;;;;14.82;72.51;101659.38;5053137;28;20053;-46
2023/06/15 00:09:08;;;;;;;12.68;7.85;;;;;;;14.67;72.72;101653.78;5052788;28;20071;-47
2023/06/15 00:11:33;;;;;;;14.00;8.50;;;;;;;14.66;73.05;101659.81;5052921;28;20096;-47
2023/06/15 00:13:59;;;;;;;13.07;8.38;;;;;;;14.53;74.06;101657.72;5052821;28;20499;-44
2023/06/15 00:16:30;;;;;;;19.25;8.35;;;;;;;14.44;74.78;101659.22;5052143;28;20075;-46
2023/06/15 00:19:01;;;;;;;13.20;8.10;;;;;;;14.51;73.28;101654.19;5052928;28;20027;-46
2023/06/15 00:21:34;;;;;;;14.60;8.50;;;;;;;14.48;73.64;101653.25;5052731;28;20040;-46
2023/06/15 00:23:59;;;;;;;12.02;8.25;;;;;;;14.46;73.44;101654.94;5052405;28;20112;-42
2023/06/15 00:26:26;;;;;;;11.45;8.25;;;;;;;14.52;73.21;101659.41;5052414;28;20108;-46
2023/06/15 00:28:51;;;;;;;14.32;8.15;;;;;;;14.45;74.10;101654.91;5052904;28;20043;-45
2023/06/15 00:31:17;;;;;;;14.73;8.45;;;;;;;14.43;74.48;101659.19;5052182;28;20029;-43
2023/06/15 00:33:42;;;;;;;16.08;8.32;;;;;;;14.34;75.35;101664.97;5052759;28;20111;-45
2023/06/15 00:36:11;;;;;;;15.18;9.18;;;;;;;14.36;75.71;101671.09;5052948;28;20025;-44
2023/06/15 00:38:37;;;;;;;16.30;9.07;;;;;;;14.30;77.01;101666.59;5052018;28;20104;-45
2023/06/15 00:41:02;;;;;;;12.80;9.25;;;;;;;14.14;78.52;101680.00;5052431;28;20449;-46
2023/06/15 00:43:27;;;;;;;14.20;9.75;;;;;;;14.15;78.14;101671.38;5052394;28;20032;-46
2023/06/15 00:45:53;;;;;;;16.45;9.82;;;;;;;14.14;79.13;101670.50;5051888;28;20025;-46
2023/06/15 00:48:18;;;;;;;12.50;9.00;;;;;;;14.12;79.04;101672.16;5052403;28;20414;-46
2023/06/15 00:50:43;;;;;;;15.75;10.10;;;;;;;14.09;79.90;101671.22;5052682;28;20376;-46
2023/06/15 00:53:10;;;;;;;14.48;11.30;;;;;;;13.93;81.06;101675.06;5052072;28;20361;-45
2023/06/15 00:55:36;;;;;;;12.80;9.60;;;;;;;13.85;81.31;101677.44;5052126;28;20025;-47
2023/06/15 00:58:05;;;;;;;14.45;10.60;;;;;;;13.76;82.36;101679.75;5052004;28;20033;-46
2023/06/15 01:00:36;;;;;;;12.40;10.45;;;;;;;13.64;83.49;101680.28;5052184;28;20520;-46
2023/06/15 01:03:04;;;;;;;14.02;10.00;;;;;;;13.59;84.71;101674.94;5052155;28;20469;-44
2023/06/15 01:05:30;;;;;;;16.15;10.52;;;;;;;13.55;84.75;101670.50;5051751;28;20029;-46
2023/06/15 01:07:56;;;;;;;15.10;10.73;;;;;;;13.49;84.14;101667.72;5052271;28;20021;-46
2023/06/15 01:10:24;;;;;;;17.15;11.57;;;;;;;13.57;83.25;101676.63;5052382;28;20104;-45
2023/06/15 01:12:53;;;;;;;14.98;11.40;;;;;;;13.53;83.06;101676.47;5051882;28;20032;-46
2023/06/15 01:15:20;;;;;;;13.82;11.32;;;;;;;13.60;82.89;101675.84;5051867;28;20432;-46
2023/06/15 01:17:46;;;;;;;13.98;11.90;;;;;;;13.55;83.53;101672.22;5052434;28;20033;-46
2023/06/15 01:20:17;;;;;;;18.45;12.50;;;;;;;13.51;84.11;101676.44;5051747;28;20049;-46
2023/06/15 01:22:55;;;;;;;19.15;12.02;;;;;;;13.52;84.23;101674.72;5052251;28;20032;-46
2023/06/15 01:25:33;;;;;;;18.33;12.20;;;;;;;13.52;84.80;101677.28;5051979;28;20465;-46
2023/06/15 01:28:02;;;;;;;15.70;12.07;;;;;;;13.47;84.96;101678.03;5051932;28;20099;-46
2023/06/15 01:30:31;;;;;;;15.80;12.18;;;;;;;13.39;85.78;101681.22;5051701;28;20349;-47
2023/06/15 01:32:57;;;;;;;14.32;11.55;;;;;;;13.35;86.87;101675.06;5052337;28;20053;-45
2023/06/15 01:35:22;;;;;;;15.00;11.63;;;;;;;13.22;88.29;101683.25;5051494;28;20044;-44
2023/06/15 01:37:47;;;;;;;16.15;12.18;;;;;;;12.99;89.16;101691.16;5051927;28;20025;-44
2023/06/15 01:40:14;;;;;;;14.52;11.13;;;;;;;12.75;89.00;101692.06;5051584;28;20074;-46
2023/06/15 01:42:41;;;;;;;19.17;11.98;;;;;;;12.58;89.34;101700.97;5051962;28;20029;-42
2023/06/15 01:45:07;;;;;;;19.13;11.57;;;;;;;12.64;89.75;101695.97;5051933;28;20491;-45
2023/06/15 01:47:33;;;;;;;19.63;12.55;;;;;;;12.68;90.53;101684.94;5051635;28;20033;-45
2023/06/15 01:50:00;;;;;;;15.07;11.90;;;;;;;12.82;89.81;101688.88;5051983;28;20024;-41
2023/06/15 01:52:26;;;;;;;14.75;12.73;;;;;;;12.66;89.94;101692.63;5052012;28;20110;-46
2023/06/15 01:54:51;;;;;;;16.23;12.98;;;;;;;12.57;90.02;101694.03;5051700;28;20053;-47
2023/06/15 01:57:19;;;;;;;16.27;12.48;;;;;;;12.47;90.68;101696.28;5051958;28;20029;-46
2023/06/15 01:59:45;;;;;;;17.60;12.93;;;;;;;12.60;90.60;101686.38;5055682;28;20384;-46
2023/06/15 02:02:10;;;;;;;20.02;12.52;;;;;;;12.71;90.04;101679.84;5055048;28;20029;-47
2023/06/15 02:04:35;;;;;;;16.48;12.32;;;;;;;12.74;89.10;101679.94;5055064;28;20108;-46
2023/06/15 02:07:02;;;;;;;16.35;13.35;;;;;;;12.66;89.64;101686.59;5055639;28;20028;-44
2023/06/15 02:09:28;;;;;;;19.67;13.30;;;;;;;12.58;89.74;101691.50;5054553;28;20385;-46
2023/06/15 02:11:53;;;;;;;16.23;12.80;;;;;;;12.70;89.52;101688.44;5055081;28;20487;-47
2023/06/15 02:14:18;;;;;;;15.27;12.07;;;;;;;12.87;89.10;101688.13;5054896;28;20107;-47
2023/06/15 02:16:43;;;;;;;15.27;10.85;;;;;;;12.78;88.78;101681.84;5054781;28;20541;-46
2023/06/15 02:19:09;;;;;;;16.35;12.00;;;;;;;12.70;89.37;101683.25;5055006;28;20021;-43
2023/06/15 02:21:35;;;;;;;15.13;12.15;;;;;;;12.85;88.78;101682.91;5054762;28;20389;-46
2023/06/15 02:24:00;;;;;;;15.93;11.65;;;;;;;12.88;88.38;101689.91;5054825;28;20489;-44
2023/06/15 02:26:25;;;;;;;19.05;12.52;;;;;;;12.82;88.77;101688.88;5054633;28;20035;-47
2023/06/15 02:28:51;;;;;;;16.38;12.43;;;;;;;12.71;89.28;101695.38;5055066;28;20100;-45
2023/06/15 02:31:16;;;;;;;18.92;12.65;;;;;;;12.82;89.60;101691.47;5054318;28;20116;-43
2023/06/15 02:33:42;;;;;;;19.40;12.45;;;;;;;12.74;89.80;101699.78;5054623;28;20025;-46
2023/06/15 02:36:07;;;;;;;18.55;13.32;;;;;;;12.55;91.05;101701.75;5055172;28;20029;-46
2023/06/15 02:38:32;;;;;;;15.88;11.75;;;;;;;12.67;90.68;101704.72;5054043;28;20025;-47
2023/06/15 02:40:58;;;;;;;13.95;12.00;;;;;;;12.64;90.05;101706.31;5054725;28;20021;-45
2023/06/15 02:43:23;;;;;;;16.35;12.50;;;;;;;12.62;90.31;101700.25;5054606;28;20073;-46
2023/06/15 02:45:48;;;;;;;17.73;13.25;;;;;;;12.55;90.71;101709.50;5054426;28;20481;-45
2023/06/15 02:48:14;;;;;;;16.25;12.02;;;;;;;12.67;90.19;101715.06;5054379;28;20021;-46
2023/06/15 02:50:39;;;;;;;17.05;11.88;;;;;;;12.71;90.01;101713.50;5053854;28;20025;-47
2023/06/15 02:53:05;;;;;;;15.05;11.73;;;;;;;12.72;89.82;101716.94;5054472;28;20033;-45
2023/06/15 02:55:32;;;;;;;18.00;12.40;;;;;;;12.70;89.98;101716.88;5054015;28;20025;-45
2023/06/15 02:57:58;;;;;;;19.83;12.18;;;;;;;12.68;89.88;101710.81;5054113;28;20025;-45
2023/06/15 03:00:23;;;;;;;15.93;12.82;;;;;;;12.71;89.96;101703.13;5053941;28;20082;-41
2023/06/15 03:02:52;;;;;;;17.08;13.02;;;;;;;12.68;89.89;101706.50;5054608;28;20025;-46
2023/06/15 03:05:18;;;;;;;17.60;12.85;;;;;;;12.69;90.30;101707.38;5053390;28;20067;-46
2023/06/15 03:07:43;;;;;;;15.35;12.57;;;;;;;12.69;90.34;101707.38;5054178;28;20029;-44
2023/06/15 03:10:09;;;;;;;15.95;12.48;;;;;;;12.77;89.97;101708.53;5053933;28;20024;-46
2023/06/15 03:12:34;;;;;;;16.52;12.27;;;;;;;12.77;89.56;101710.22;5053424;28;20029;-46
2023/06/15 03:15:01;;;;;;;18.38;12.60;;;;;;;12.74;89.52;101705.81;5053975;28;20032;-47
2023/06/15 03:17:26;;;;;;;18.40;12.20;;;;;;;12.78;89.66;101712.88;5053877;28;20036;-44
2023/06/15 03:19:52;;;;;;;14.18;12.25;;;;;;;12.81;89.86;101701.75;5053363;28;20041;-46
2023/06/15 03:22:17;;;;;;;15.68;13.57;;;;;;;12.79;89.98;101711.16;5053664;28;20025;-43
2023/06/15 03:24:43;;;;;;;15.38;12.43;;;;;;;12.82;90.26;101709.56;5054115;28;20029;-45
2023/06/15 03:27:10;;;;;;;15.07;11.93;;;;;;;12.74;90.23;101711.00;5053604;28;20033;-44
2023/06/15 03:29:39;;;;;;;20.45;12.20;;;;;;;12.77;90.69;101715.38;5053543;28;20096;-43
2023/06/15 03:32:08;;;;;;;16.73;12.57;;;;;;;12.67;91.13;101719.38;5053798;28;20025;-46
2023/06/15 03:34:37;;;;;;;17.02;12.95;;;;;;;12.67;91.22;101719.38;5053261;28;20078;-47
2023/06/15 03:37:03;;;;;;;18.10;13.40;;;;;;;12.68;91.61;101715.97;5053653;28;20025;-41
2023/06/15 03:39:29;;;;;;;15.88;12.70;;;;;;;12.67;91.59;101714.22;5053536;28;20077;-46
2023/06/15 03:41:54;;;;;;;18.23;12.48;;;;;;;12.65;91.54;101718.44;5053360;28;20109;-45
2023/06/15 03:44:20;;;;;;;15.13;12.65;;;;;;;12.62;91.67;101715.75;5053277;28;20025;-47
2023/06/15 03:46:46;;;;;;;15.70;12.23;;;;;;;12.52;92.40;101714.53;5053093;28;20029;-41
2023/06/15 03:49:13;;;;;;;20.92;13.80;;;;;;;12.57;93.12;101713.00;5053718;28;20029;-44
2023/06/15 03:51:38;;;;;;;15.90;12.45;;;;;;;12.61;92.43;101712.28;5053014;28;20064;-46
2023/06/15 03:54:04;;;;;;;22.30;13.13;;;;;;;12.60;93.01;101714.81;5052953;28;20064;-45
2023/06/15 03:56:30;;;;;;;18.95;12.27;;;;;;;12.60;93.16;101712.22;5052829;28;20055;-42
2023/06/15 03:58:55;;;;;;;18.25;13.13;;;;;;;12.64;93.57;101714.09;5053421;28;20021;-47
2023/06/15 04:01:22;;;;;;;16.30;13.07;;;;;;;12.65;93.80;101715.84;5052398;28;20079;-45
2023/06/15 04:03:47;;;;;;;15.53;12.57;;;;;;;12.68;93.44;101718.56;5053152;28;20028;-46
2023/06/15 04:06:13;;;;;;;17.77;13.27;;;;;;;12.77;92.65;101721.47;5053433;28;20029;-43
2023/06/15 04:08:38;;;;;;;20.20;14.05;;;;;;;12.77;92.79;101724.06;5052805;28;20029;-46
2023/06/15 04:11:03;;;;;;;22.92;14.20;;;;;;;12.72;93.50;101725.59;5053042;28;20470;-45
2023/06/15 04:13:29;;;;;;;19.10;14.05;;;;;;;12.79;93.09;101724.97;5053703;28;20070;-45
2023/06/15 04:15:55;;;;;;;23.23;15.05;;;;;;;12.89;92.38;101714.97;5053128;28;20025;-46
2023/06/15 04:18:23;;;;;;;20.33;14.20;;;;;;;12.90;92.46;101719.28;5053626;28;20032;-47
2023/06/15 04:20:49;;;;;;;23.42;14.00;;;;;;;12.99;92.33;101723.06;5052713;28;20049;-44
2023/06/15 04:23:15;;;;;;;19.58;14.73;;;;;;;13.10;91.52;101725.13;5052728;28;20021;-45
2023/06/15 04:25:40;;;;;;;18.25;13.82;;;;;;;13.20;91.31;101736.69;5052574;28;20032;-46
2023/06/15 04:28:10;;;;;;;18.80;13.68;;;;;;;13.27;91.41;101734.34;5052910;28;20027;-47
2023/06/15 04:30:38;;;;;;;19.05;12.65;;;;;;;13.33;92.30;101728.47;5051992;28;20496;-45
2023/06/15 04:33:04;;;;;;;21.60;14.07;;;;;;;13.34;93.00;101732.84;5052575;28;20472;-45
2023/06/15 04:35:31;;;;;;;33.47;14.43;;;;;;;13.41;95.25;101731.34;5052499;28;20483;-45
2023/06/15 04:37:59;;;;;;;18.48;13.55;;;;;;;13.54;94.62;101735.22;5052168;28;20504;-44
2023/06/15 04:40:25;;;;;;;19.65;14.18;;;;;;;13.57;95.39;101743.06;5052138;28;20461;-46
2023/06/15 04:42:52;;;;;;;21.13;13.93;;;;;;;13.70;93.85;101737.47;5052505;28;20036;-46
2023/06/15 04:45:17;;;;;;;19.37;14.97;;;;;;;13.77;93.49;101739.38;5052103;28;20376;-45
2023/06/15 04:47:42;;;;;;;19.35;13.02;;;;;;;13.90;92.47;101747.53;5052359;28;20481;-45
2023/06/15 04:50:09;;;;;;;22.52;14.27;;;;;;;13.97;92.99;101749.50;5052033;28;20029;-45
2023/06/15 04:52:35;;;;;;;21.70;14.60;;;;;;;14.09;94.29;101749.84;5052196;28;20037;-44
2023/06/15 04:55:01;;;;;;;21.23;15.38;;;;;;;14.15;95.70;101749.13;5052651;28;20021;-43
2023/06/15 04:57:26;;;;;;;21.02;14.25;;;;;;;14.23;95.75;101754.56;5051811;28;20087;-44
2023/06/15 04:59:51;;;;;;;19.42;15.13;;;;;;;14.31;99.45;101758.25;5052320;28;20032;-46
2023/06/15 05:02:17;;;;;;;26.05;16.67;;;;;;;14.38;99.75;101751.53;5052668;28;20034;-45
2023/06/15 05:04:42;;;;;;;21.08;16.17;;;;;;;14.51;96.50;101755.34;5051726;28;20021;-46
2023/06/15 05:07:07;;;;;;;22.45;16.13;;;;;;;14.58;96.98;101750.38;5051000;28;20469;-46
2023/06/15 05:09:32;;;;;;;27.17;16.95;;;;;;;14.65;94.86;101761.81;5052110;28;20040;-46
2023/06/15 05:11:58;;;;;;;22.10;16.40;;;;;;;14.74;94.82;101761.22;5051915;28;20427;-46
2023/06/15 05:14:26;;;;;;;24.02;16.02;;;;;;;14.88;93.82;101759.00;5051891;28;20032;-45
2023/06/15 05:16:51;;;;;;;23.27;15.90;;;;;;;14.94;91.91;101764.34;5052542;28;20108;-42
2023/06/15 05:19:16;;;;;;;24.88;18.33;;;;;;;15.06;92.35;101769.84;5051991;28;20060;-45
2023/06/15 05:21:41;;;;;;;26.58;17.70;;;;;;;15.14;90.79;101770.94;5051700;28;20071;-45
2023/06/15 05:24:07;;;;;;;27.75;18.23;;;;;;;15.28;91.87;101765.19;5052414;28;20033;-46
2023/06/15 05:26:32;;;;;;;25.70;18.38;;;;;;;15.38;92.37;101767.19;5051547;28;20036;-46
2023/06/15 05:28:57;;;;;;;23.20;18.25;;;;;;;15.47;88.74;101762.22;5052048;28;20033;-46
2023/06/15 05:31:23;;;;;;;23.00;18.35;;;;;;;15.53;87.66;101765.78;5052742;28;20439;-45
2023/06/15 05:33:48;;;;;;;27.85;18.85;;;;;;;15.64;86.53;101769.53;5055734;28;20029;-44
2023/06/15 05:36:13;;;;;;;28.33;17.95;;;;;;;15.80;85.49;101769.03;5055945;28;20016;-43
2023/06/15 05:38:38;;;;;;;34.53;19.60;;;;;;;15.84;82.19;101761.34;5055747;28;20029;-44
2023/06/15 05:41:04;;;;;;;27.33;20.02;;;;;;;15.97;81.71;101771.16;5055471;28;20021;-46
2023/06/15 05:43:29;;;;;;;25.83;19.35;;;;;;;16.11;81.57;101776.66;5055277;28;20029;-46
2023/06/15 05:45:54;;;;;;;30.45;21.00;;;;;;;16.17;80.80;101770.75;5056081;28;20029;-46
2023/06/15 05:48:20;;;;;;;30.55;20.77;;;;;;;16.30;79.94;101783.16;5055519;28;20346;-47
2023/06/15 05:50:46;;;;;;;30.20;21.98;;;;;;;16.42;80.37;101783.41;5055199;28;20021;-44
2023/06/15 05:53:11;;;;;;;31.85;22.25;;;;;;;16.47;78.56;101775.69;5055809;28;20025;-44
2023/06/15 05:55:36;;;;;;;33.38;22.67;;;;;;;16.57;76.76;101780.22;5054828;28;20035;-47
2023/06/15 05:58:02;;;;;;;28.15;22.83;;;;;;;16.70;78.00;101777.88;5055584;28;20362;-47
2023/06/15 06:00:30;;;;;;;32.47;22.50;;;;;;;16.82;78.01;101783.28;5054907;28;20053;-47
2023/06/15 06:02:56;;;;;;;35.58;24.25;;;;;;;16.94;80.69;101778.34;5055335;28;20124;-44
2023/06/15 06:05:23;;;;;;;33.42;23.70;;;;;;;17.05;79.92;101781.13;5055486;28;20483;-45
2023/06/15 06:07:48;;;;;;;30.15;23.60;;;;;;;17.13;77.25;101775.19;5054967;28;20066;-45
2023/06/15 06:10:17;;;;;;;35.22;23.83;;;;;;;17.25;77.70;101772.81;5055064;28;20112;-44
2023/06/15 06:12:42;;;;;;;33.15;23.10;;;;;;;17.32;78.36;101774.66;5055175;28;20025;-44
2023/06/15 06:15:08;;;;;;;39.25;25.75;;;;;;;17.36;75.47;101770.38;5054909;28;20025;-44
2023/06/15 06:17:33;;;;;;;31.70;23.67;;;;;;;17.48;76.04;101769.69;5054767;28;20029;-46
2023/06/15 06:19:58;;;;;;;33.67;24.10;;;;;;;17.57;73.52;101781.16;5055068;28;20128;-45
2023/06/15 06:22:23;;;;;;;36.13;24.38;;;;;;;17.67;74.83;101776.06;5054355;28;20029;-46
2023/06/15 06:24:49;;;;;;;33.00;25.55;;;;;;;17.82;74.74;101775.41;5054797;28;20108;-46
2023/06/15 06:27:14;;;;;;;39.15;26.05;;;;;;;17.84;72.14;101777.19;5054924;28;20029;-44
2023/06/15 06:29:41;;;;;;;33.45;23.92;;;;;;;17.90;72.29;101774.66;5054335;28;20036;-45
2023/06/15 06:32:07;;;;;;;33.05;23.70;;;;;;;18.05;72.92;101781.88;5054679;28;20025;-46
2023/06/15 06:34:35;;;;;;;35.72;23.85;;;;;;;18.15;71.13;101779.38;5054689;28;20044;-46
2023/06/15 06:37:01;;;;;;;37.15;24.02;;;;;;;18.37;73.62;101778.81;5054367;28;20079;-46
2023/06/15 06:39:26;;;;;;;35.08;23.02;;;;;;;18.48;70.90;101773.69;5054387;28;20017;-46
2023/06/15 06:41:51;;;;;;;41.17;22.77;;;;;;;18.61;68.17;101779.94;5054710;28;20553;-45
2023/06/15 06:44:18;;;;;;;33.50;22.67;;;;;;;18.75;69.22;101783.56;5053361;28;20087;-46
2023/06/15 06:46:43;;;;;;;32.47;22.52;;;;;;;18.82;67.32;101778.41;5054211;28;20028;-49
2023/06/15 06:49:09;;;;;;;28.13;20.23;;;;;;;18.93;68.36;101779.44;5054569;28;20037;-44
2023/06/15 06:51:34;;;;;;;37.72;22.25;;;;;;;19.03;66.65;101778.66;5053998;28;20029;-49
2023/06/15 06:53:59;;;;;;;30.88;21.50;;;;;;;19.14;65.18;101783.13;5054369;28;20029;-47
2023/06/15 06:56:26;;;;;;;33.58;20.20;;;;;;;19.25;66.01;101778.88;5054162;28;20055;-49
2023/06/15 06:58:51;;;;;;;30.15;19.08;;;;;;;19.36;63.22;101781.56;5054000;28;20055;-47
2023/06/15 07:01:16;;;;;;;33.25;20.38;;;;;;;19.44;63.89;101786.84;5054448;28;20057;-46
2023/06/15 07:03:42;;;;;;;34.15;19.75;;;;;;;19.48;61.54;101791.22;5053747;28;20511;-47
2023/06/15 07:06:07;;;;;;;35.58;17.98;;;;;;;19.62;62.30;101786.13;5054268;28;20036;-49
2023/06/15 07:08:32;;;;;;;30.02;19.00;;;;;;;19.83;62.40;101788.00;5054301;28;20439;-46
2023/06/15 07:10:57;;;;;;;26.23;18.27;;;;;;;19.88;61.87;101786.31;5053731;28;20032;-42
2023/06/15 07:13:23;;;;;;;28.83;17.77;;;;;;;20.06;63.06;101783.81;5053828;28;20503;-42
2023/06/15 07:15:49;;;;;;;29.67;17.83;;;;;;;20.16;62.03;101786.47;5054251;28;20025;-47
2023/06/15 07:18:15;;;;;;;29.67;17.63;;;;;;;20.25;59.36;101786.50;5053664;28;20063;-41
2023/06/15 07:20:41;;;;;;;26.45;16.27;;;;;;;20.35;58.36;101788.28;5053755;28;20106;-42
2023/06/15 07:23:06;;;;;;;26.55;14.77;;;;;;;20.50;58.72;101787.47;5054030;28;20037;-45
2023/06/15 07:25:32;;;;;;;25.08;17.13;;;;;;;20.59;55.38;101783.13;5053326;28;20044;-45
2023/06/15 07:27:57;;;;;;;29.20;16.98;;;;;;;20.66;55.31;101785.78;5053669;28;20025;-42
2023/06/15 07:30:23;;;;;;;33.45;16.25;;;;;;;20.89;55.88;101782.38;5053651;28;20025;-42
2023/06/15 07:32:48;;;;;;;22.63;14.43;;;;;;;20.97;56.16;101785.88;5053400;28;20025;-45
2023/06/15 07:35:13;;;;;;;31.27;14.15;;;;;;;21.07;56.21;101778.00;5053667;28;20021;-42
2023/06/15 07:37:39;;;;;;;27.35;15.20;;;;;;;21.22;54.63;101783.25;5053536;28;20072;-43
2023/06/15 07:40:05;;;;;;;20.75;13.98;;;;;;;21.35;54.99;101794.63;5053079;28;20162;-45
2023/06/15 07:42:30;;;;;;;24.92;12.70;;;;;;;21.43;50.24;101792.00;5053290;28;20087;-44
2023/06/15 07:44:55;;;;;;;31.58;12.98;;;;;;;21.48;49.02;101790.25;5053812;28;20033;-44
2023/06/15 07:47:21;;;;;;;20.10;11.85;;;;;;;21.58;51.79;101791.16;5052968;28;20461;-44
2023/06/15 07:49:46;;;;;;;22.15;11.73;;;;;;;21.69;49.72;101784.13;5053116;28;20039;-44
2023/06/15 07:52:11;;;;;;;19.85;10.48;;;;;;;21.83;51.34;101794.59;5053383;28;20112;-43
2023/06/15 07:54:37;;;;;;;21.13;10.73;;;;;;;21.97;48.32;101784.94;5052507;28;20420;-47
2023/06/15 07:57:02;;;;;;;19.45;10.13;;;;;;;22.04;48.42;101784.03;5053355;28;20048;-43
2023/06/15 07:59:27;;;;;;;18.88;10.20;;;;;;;22.17;47.30;101779.63;5053279;28;20033;-45
2023/06/15 08:01:53;;;;;;;21.30;10.07;;;;;;;22.16;44.83;101784.88;5052795;28;20090;-44
2023/06/15 08:04:18;;;;;;;42.28;9.93;;;;;;;22.34;47.37;101781.31;5053351;28;20033;-45
2023/06/15 08:06:43;;;;;;;19.83;9.32;;;;;;;22.48;46.05;101786.53;5052927;28;20534;-44
2023/06/15 08:09:11;;;;;;;16.60;10.02;;;;;;;22.54;44.15;101786.47;5052325;28;20033;-48
2023/06/15 08:11:36;;;;;;;14.60;8.48;;;;;;;22.69;44.69;101790.78;5053025;28;20017;-43
2023/06/15 08:14:02;;;;;;;16.30;8.50;;;;;;;22.78;43.25;101784.63;5052802;28;20090;-43
2023/06/15 08:16:27;;;;;;;20.00;9.35;;;;;;;22.87;43.81;101788.94;5052725;28;20324;-44
2023/06/15 08:18:53;;;;;;;15.85;9.38;;;;;;;22.92;43.28;101788.03;5053251;28;20373;-46
2023/06/15 08:21:18;;;;;;;16.13;8.55;;;;;;;22.97;41.62;101788.84;5052367;28;20045;-46
2023/06/15 08:23:43;;;;;;;19.15;7.65;;;;;;;23.07;41.06;101796.66;5052366;28;20029;-48
2023/06/15 08:26:10;;;;;;;13.02;6.75;;;;;;;23.11;39.55;101793.13;5053156;28;20132;-43
2023/06/15 08:28:35;;;;;;;14.90;7.30;;;;;;;23.25;40.00;101786.03;5052186;28;20096;-48
2023/06/15 08:31:03;;;;;;;10.77;6.80;;;;;;;23.19;39.00;101791.38;5052816;28;20604;-46
2023/06/15 08:33:28;;;;;;;;;;;;;;;23.30;40.14;101794.75;5053025;28;20048;-45
2023/06/15 08:35:54;;;;;;;12.60;5.30;;;;;;;23.42;38.88;101798.16;5052261;28;20313;-46
2023/06/15 08:38:19;;;;;;;18.90;7.05;;;;;;;23.56;38.82;101791.00;5052419;28;20029;-43
2023/06/15 08:40:45;;;;;;;13.65;6.80;;;;;;;23.62;37.82;101790.97;5052622;28;20366;-46
2023/06/15 08:43:14;;;;;;;16.35;7.20;;;;;;;23.57;37.48;101795.41;5051906;28;20473;-48
2023/06/15 08:45:41;;;;;;;12.32;6.50;;;;;;;23.73;38.71;101800.50;5052392;28;20028;-43
2023/06/15 08:48:09;;;;;;;14.00;7.63;;;;;;;23.74;37.39;101789.97;5053094;28;20021;-47
2023/06/15 08:50:38;;;;;;;14.70;6.95;;;;;;;23.87;38.31;101784.56;5051760;28;20021;-43
2023/06/15 08:53:05;;;;;;;10.25;5.72;;;;;;;23.94;38.96;101792.44;5052196;28;20087;-43
2023/06/15 08:55:32;;;;;;;12.75;6.20;;;;;;;24.16;37.62;101786.91;5052500;28;20104;-47
2023/06/15 08:57:59;;;;;;;19.92;6.40;;;;;;;24.20;35.93;101791.25;5052169;28;20021;-45
2023/06/15 09:00:24;;;;;;;;;;;;;;;24.27;36.26;101790.28;5052692;28;20044;-47
2023/06/15 09:02:53;;;;;;;14.40;6.20;;;;;;;24.20;36.66;101788.63;5052509;28;19956;-44
2023/06/15 09:05:19;;;;;;;13.75;6.28;;;;;;;24.32;36.70;101792.84;5051660;28;20599;-44
2023/06/15 09:07:44;;;;;;;14.50;6.93;;;;;;;24.21;36.62;101790.38;5054989;28;20064;-43
2023/06/15 09:10:14;;;;;;;13.00;6.50;;;;;;;24.37;37.29;101787.53;5056752;28;20017;-49
2023/06/15 09:13:09;;;;;;;19.23;6.20;;;;;;;24.57;35.22;101780.22;5055508;28;20033;-43
2023/06/15 09:15:36;;;;;;;14.23;6.50;;;;;;;24.73;35.45;101777.41;5051076;28;20436;-45
2023/06/15 09:18:02;;;;;;;14.40;6.60;;;;;;;24.98;36.10;101783.16;5055932;28;20074;-45
2023/06/15 09:20:36;;;;;;;31.65;7.05;;;;;;;24.92;35.43;101784.13;5055792;28;20116;-47
2023/06/15 09:23:04;;;;;;;13.80;6.10;;;;;;;25.00;34.85;101784.03;5056304;28;20165;-44
2023/06/15 09:25:32;;;;;;;;;;;;;;;25.23;35.86;101788.03;5055907;28;20025;-45
2023/06/15 09:27:58;;;;;;;11.32;6.05;;;;;;;25.45;35.11;101791.22;5055959;28;19943;-43
2023/06/15 09:30:38;;;;;;;13.38;6.35;;;;;;;25.18;34.45;101784.59;5055775;28;20039;-45
2023/06/15 09:33:24;;;;;;;12.60;5.85;;;;;;;25.56;36.32;101783.97;5055828;28;20098;-47
2023/06/15 09:36:05;;;;;;;12.65;6.07;;;;;;;25.65;33.47;101788.22;5055974;28;20033;-43
2023/06/15 09:38:42;;;;;;;9.77;5.47;;;;;;;25.99;33.05;101778.75;5055213;28;20028;-45
2023/06/15 09:41:08;;;;;;;11.98;6.18;;;;;;;26.12;32.36;101785.59;5055813;28;20457;-49
2023/06/15 09:43:35;;;;;;;15.98;6.00;;;;;;;26.27;31.97;101779.97;5055690;28;20025;-45
2023/06/15 09:46:01;;;;;;;18.27;6.40;;;;;;;26.79;30.65;101777.06;5055525;28;20021;-44
2023/06/15 09:48:32;;;;;;;14.95;6.32;;;;;;;27.37;30.86;101779.19;5055199;28;20473;-48
2023/06/15 09:51:01;;;;;;;15.88;6.50;;;;;;;27.85;30.22;101768.22;5056084;28;20066;-49
2023/06/15 09:53:28;;;;;;;12.82;6.10;;;;;;;28.39;31.33;101779.03;5054835;28;20147;-46
2023/06/15 09:55:55;;;;;;;14.20;5.63;;;;;;;28.77;28.94;101782.31;5055733;28;20025;-47
2023/06/15 09:58:20;;;;;;;13.38;5.80;;;;;;;29.01;29.61;101771.78;5055612;28;20392;-47
2023/06/15 10:00:49;;;;;;;9.38;6.22;;;;;;;28.85;28.40;101774.09;5055057;28;20044;-48
2023/06/15 10:03:21;;;;;;;18.15;6.45;;;;;;;28.82;28.31;101780.38;5055433;28;20082;-47
2023/06/15 10:05:54;;;;;;;15.65;6.20;;;;;;;28.74;29.20;101779.72;5055290;28;20021;-47
2023/06/15 10:08:23;;;;;;;11.82;5.72;;;;;;;28.31;28.59;101783.69;5054734;28;20029;-46
2023/06/15 10:10:51;;;;;;;10.77;5.65;;;;;;;27.98;29.68;101781.09;5055578;28;20137;-47
2023/06/15 10:13:22;;;;;;;16.52;5.85;;;;;;;27.71;27.15;101780.97;5055354;28;20616;-48
2023/06/15 10:15:52;;;;;;;11.68;6.32;;;;;;;27.55;29.11;101780.50;5054654;28;20024;-48
2023/06/15 10:18:20;;;;;;;12.35;5.85;;;;;;;27.30;27.22;101777.63;5054002;28;20036;-47
2023/06/15 10:20:48;;;;;;;11.55;5.68;;;;;;;27.16;28.54;101781.47;5054237;28;20037;-48
2023/06/15 10:23:15;;;;;;;12.60;6.03;;;;;;;27.49;30.46;101778.91;5055151;28;20025;-45
2023/06/15 10:25:43;;;;;;;12.40;6.07;;;;;;;27.31;29.20;101772.28;5055097;28;20035;-47
2023/06/15 10:28:11;;;;;;;10.15;5.43;;;;;;;27.17;30.61;101767.34;5054668;28;20021;-42
2023/06/15 10:31:00;;;;;;;17.05;5.90;;;;;;;26.95;31.44;101770.50;5054570;28;20029;-41
2023/06/15 10:33:52;;;;;;;18.77;6.13;;;;;;;26.63;30.31;101772.09;5054907;28;20096;-41
2023/06/15 10:36:30;;;;;;;11.95;5.80;;;;;;;26.38;30.62;101771.81;5054266;28;20025;-42
2023/06/15 10:39:08;;;;;;;14.38;5.82;;;;;;;26.12;32.45;101778.53;5054876;28;20025;-43
2023/06/15 10:41:34;;;;;;;12.30;6.20;;;;;;;25.86;31.58;101778.13;5054705;28;20021;-41
2023/06/15 10:44:00;;;;;;;11.65;5.38;;;;;;;25.61;33.28;101775.97;5053989;28;20029;-44
2023/06/15 10:46:28;;;;;;;11.25;6.10;;;;;;;25.26;32.19;101778.31;5054468;28;20028;-47
2023/06/15 10:48:54;;;;;;;11.35;5.78;;;;;;;25.28;33.42;101771.25;5054252;28;20029;-44
2023/06/15 10:51:21;;;;;;;11.60;6.15;;;;;;;26.67;31.68;101772.91;5054489;28;20048;-46
2023/06/15 10:53:46;;;;;;;18.80;5.95;;;;;;;27.68;29.62;101778.38;5054316;28;20377;-47
2023/06/15 10:56:21;;;;;;;11.77;5.65;;;;;;;29.97;28.36;101773.78;5053953;28;20025;-47
2023/06/15 10:58:55;;;;;;;13.35;6.00;;;;;;;30.45;25.87;101767.50;5054146;28;20032;-49
2023/06/15 11:01:23;;;;;;;16.48;5.53;;;;;;;31.22;25.91;101768.00;5054591;28;20029;-44
2023/06/15 11:03:48;;;;;;;11.80;5.70;;;;;;;32.59;23.99;101768.91;5053748;28;20495;-45
2023/06/15 11:06:15;;;;;;;12.80;5.40;;;;;;;32.15;23.99;101778.94;5054046;28;20025;-43
2023/06/15 11:08:51;;;;;;;14.60;5.25;;;;;;;33.22;22.90;101770.25;5053945;28;20468;-45
2023/06/15 11:11:31;;;;;;;17.00;5.55;;;;;;;34.39;22.57;101771.19;5053809;28;20043;-45